createdAt,value
2023-03-05T00:01:53.436Z,24.74
2023-03-05T00:04:42.070Z,24.80
2023-03-05T00:07:30.677Z,24.75
2023-03-05T00:10:19.410Z,24.69
2023-03-05T00:13:08.124Z,24.79
2023-03-05T00:15:58.270Z,24.75
2023-03-05T00:18:47.380Z,24.84
2023-03-05T00:21:37.621Z,24.79
2023-03-05T00:24:26.365Z,24.77
2023-03-05T00:27:15.077Z,24.69
2023-03-05T00:30:03.697Z,24.87
2023-03-05T00:32:53.675Z,24.81
2023-03-05T00:35:42.498Z,24.75
2023-03-05T00:38:31.150Z,24.74
2023-03-05T00:41:19.834Z,24.77
2023-03-05T00:44:08.857Z,24.79
2023-03-05T00:46:57.569Z,24.88
2023-03-05T00:49:47.653Z,24.81
2023-03-05T00:52:36.279Z,24.78
2023-03-05T00:55:24.915Z,24.79
2023-03-05T00:58:13.538Z,24.72
2023-03-05T01:01:02.954Z,24.79
2023-03-05T01:03:51.817Z,24.73
2023-03-05T01:06:44.696Z,24.74
2023-03-05T01:09:33.613Z,24.80
2023-03-05T01:12:22.288Z,24.81
2023-03-05T01:15:11.586Z,24.67
2023-03-05T01:18:00.340Z,24.65
2023-03-05T01:20:49.705Z,24.65
2023-03-05T01:23:39.754Z,24.67
2023-03-05T01:26:28.712Z,24.67
2023-03-05T01:29:17.440Z,24.59
2023-03-05T01:32:06.590Z,24.57
2023-03-05T01:34:55.468Z,24.68
2023-03-05T01:37:44.348Z,24.71
2023-03-05T01:40:34.672Z,24.69
2023-03-05T01:43:27.672Z,24.66
2023-03-05T01:46:35.948Z,24.67
2023-03-05T01:49:26.868Z,24.71
2023-03-05T01:52:18.184Z,24.70
2023-03-05T01:55:09.429Z,24.72
2023-03-05T01:58:02.610Z,24.65
2023-03-05T02:00:53.888Z,24.75
2023-03-05T02:03:43.188Z,24.64
2023-03-05T02:06:32.054Z,24.70
2023-03-05T02:09:23.518Z,24.71
2023-03-05T02:12:13.469Z,24.61
2023-03-05T02:15:03.623Z,24.67
2023-03-05T02:17:52.640Z,24.64
2023-03-05T02:20:52.074Z,24.63
2023-03-05T02:23:42.187Z,24.71
2023-03-05T02:26:30.866Z,24.65
2023-03-05T02:29:21.640Z,24.74
2023-03-05T02:32:10.608Z,24.76
2023-03-05T02:34:59.285Z,24.71
2023-03-05T02:37:48.036Z,24.65
2023-03-05T02:40:37.982Z,24.69
2023-03-05T02:43:26.876Z,24.74
2023-03-05T02:46:15.603Z,24.68
2023-03-05T02:49:04.270Z,24.67
2023-03-05T02:51:52.884Z,24.74
2023-03-05T02:54:41.551Z,24.72
2023-03-05T02:57:31.576Z,24.71
2023-03-05T03:00:20.603Z,24.69
2023-03-05T03:03:09.534Z,24.68
2023-03-05T03:05:58.246Z,24.72
2023-03-05T03:08:46.839Z,24.75
2023-03-05T03:11:35.468Z,24.74
2023-03-05T03:14:25.730Z,24.75
2023-03-05T03:17:25.177Z,24.64
2023-03-05T03:20:17.116Z,24.72
2023-03-05T03:23:05.748Z,24.73
2023-03-05T03:25:54.465Z,24.68
2023-03-05T03:28:43.048Z,24.66
2023-03-05T03:31:33.051Z,24.74
2023-03-05T03:34:22.230Z,24.70
2023-03-05T03:37:10.911Z,24.71
2023-03-05T03:39:59.822Z,24.61
2023-03-05T03:42:48.398Z,24.66
2023-03-05T03:45:37.157Z,24.67
2023-03-05T03:48:27.259Z,24.62
2023-03-05T03:51:15.970Z,24.62
2023-03-05T03:54:04.711Z,24.59
2023-03-05T03:56:53.661Z,24.63
2023-03-05T03:59:42.296Z,24.59
2023-03-05T04:02:30.884Z,24.68
2023-03-05T04:05:20.974Z,24.62
2023-03-05T04:08:12.108Z,24.69
2023-03-05T04:11:02.849Z,24.64
2023-03-05T04:13:51.805Z,24.56
2023-03-05T04:16:40.596Z,24.53
2023-03-05T04:19:30.746Z,24.52
2023-03-05T04:22:20.980Z,24.68
2023-03-05T04:25:10.312Z,24.58
2023-03-05T04:27:59.018Z,24.57
2023-03-05T04:30:47.790Z,24.58
2023-03-05T04:33:36.538Z,24.69
2023-03-05T04:36:25.266Z,24.64
2023-03-05T04:39:15.471Z,24.57
2023-03-05T04:42:04.222Z,24.67
2023-03-05T04:44:53.319Z,24.57
2023-03-05T04:47:42.073Z,24.63
2023-03-05T04:50:30.824Z,24.67
2023-03-05T04:53:19.611Z,24.74
2023-03-05T04:56:09.921Z,24.64
2023-03-05T04:58:58.691Z,24.61
2023-03-05T05:01:47.456Z,24.55
2023-03-05T05:04:36.735Z,24.60
2023-03-05T05:07:25.638Z,24.61
2023-03-05T05:10:15.714Z,24.69
2023-03-05T05:13:05.817Z,24.64
2023-03-05T05:15:54.722Z,24.57
2023-03-05T05:18:43.495Z,24.59
2023-03-05T05:21:32.262Z,24.70
2023-03-05T05:24:21.073Z,24.65
2023-03-05T05:27:09.878Z,24.56
2023-03-05T05:29:59.960Z,24.56
2023-03-05T05:32:48.914Z,24.50
2023-03-05T05:35:40.960Z,24.56
2023-03-05T05:38:29.889Z,24.49
2023-03-05T05:41:19.983Z,24.52
2023-03-05T05:44:08.672Z,24.55
2023-03-05T05:46:58.879Z,24.64
2023-03-05T05:49:47.772Z,24.58
2023-03-05T05:52:36.508Z,24.64
2023-03-05T05:55:25.271Z,24.55
2023-03-05T05:58:14.071Z,24.46
2023-03-05T06:01:02.928Z,24.51
2023-03-05T06:03:53.154Z,24.47
2023-03-05T06:06:41.896Z,24.51
2023-03-05T06:09:30.743Z,24.44
2023-03-05T06:12:19.486Z,24.41
2023-03-05T06:15:09.434Z,24.52
2023-03-05T06:17:58.138Z,24.55
2023-03-05T06:20:55.943Z,24.56
2023-03-05T06:23:45.045Z,24.54
2023-03-05T06:26:34.551Z,24.48
2023-03-05T06:29:23.210Z,24.46
2023-03-05T06:32:11.979Z,24.42
2023-03-05T06:35:00.760Z,24.41
2023-03-05T06:37:50.913Z,24.36
2023-03-05T06:40:41.005Z,24.37
2023-03-05T06:43:30.011Z,24.32
2023-03-05T06:46:20.500Z,24.39
2023-03-05T06:49:09.837Z,24.38
2023-03-05T06:51:58.612Z,24.37
2023-03-05T06:54:48.813Z,24.29
2023-03-05T06:57:38.440Z,24.25
2023-03-05T07:00:29.702Z,24.28
2023-03-05T07:03:18.622Z,24.27
2023-03-05T07:06:09.228Z,24.31
2023-03-05T07:08:58.615Z,24.21
2023-03-05T07:11:48.819Z,24.21
2023-03-05T07:14:38.368Z,24.13
2023-03-05T07:17:27.315Z,24.18
2023-03-05T07:20:16.087Z,24.15
2023-03-05T07:23:05.136Z,24.17
2023-03-05T07:25:53.832Z,24.21
2023-03-05T07:28:44.299Z,24.19
2023-03-05T07:31:33.172Z,24.16
2023-03-05T07:34:21.988Z,24.17
2023-03-05T07:37:10.594Z,24.19
2023-03-05T07:39:59.301Z,24.14
2023-03-05T07:42:47.846Z,24.27
2023-03-05T07:45:41.219Z,24.29
2023-03-05T07:48:29.878Z,24.21
2023-03-05T07:51:20.422Z,24.14
2023-03-05T07:54:10.268Z,24.11
2023-03-05T07:56:58.948Z,24.14
2023-03-05T07:59:47.609Z,24.22
2023-03-05T08:02:37.736Z,24.31
2023-03-05T08:05:26.418Z,24.26
2023-03-05T08:08:15.093Z,24.24
2023-03-05T08:11:05.776Z,24.28
2023-03-05T08:13:54.410Z,24.26
2023-03-05T08:16:43.405Z,24.36
2023-03-05T08:19:33.975Z,24.28
2023-03-05T08:22:22.713Z,24.26
2023-03-05T08:25:11.631Z,24.24
2023-03-05T08:28:00.388Z,24.37
2023-03-05T08:30:50.241Z,24.32
2023-03-05T08:33:39.193Z,24.40
2023-03-05T08:36:29.569Z,24.40
2023-03-05T08:39:18.729Z,24.47
2023-03-05T08:42:09.011Z,24.69
2023-03-05T08:44:57.863Z,24.62
2023-03-05T08:47:46.591Z,24.62
2023-03-05T08:50:35.377Z,24.73
2023-03-05T08:53:26.420Z,24.96
2023-03-05T08:56:15.555Z,24.97
2023-03-05T08:59:05.712Z,24.89
2023-03-05T09:01:54.340Z,25.05
2023-03-05T09:04:43.074Z,24.99
2023-03-05T09:07:31.820Z,25.12
2023-03-05T09:10:22.119Z,25.00
2023-03-05T09:13:10.754Z,25.05
2023-03-05T09:16:00.516Z,25.13
2023-03-05T09:18:49.292Z,25.23
2023-03-05T09:21:38.454Z,25.26
2023-03-05T09:24:27.236Z,25.23
2023-03-05T09:27:17.327Z,25.19
2023-03-05T09:30:07.786Z,25.13
2023-03-05T09:32:56.636Z,25.12
2023-03-05T09:35:45.344Z,24.99
2023-03-05T09:38:36.412Z,25.07
2023-03-05T09:41:34.194Z,25.13
2023-03-05T09:44:32.897Z,25.10
2023-03-05T09:47:31.852Z,25.14
2023-03-05T09:50:33.152Z,25.07
2023-03-05T09:53:32.176Z,25.07
2023-03-05T09:56:24.168Z,25.17
2023-03-05T09:59:22.760Z,25.17
2023-03-05T10:02:20.906Z,25.30
2023-03-05T10:05:15.274Z,25.32
2023-03-05T10:08:06.500Z,25.35
2023-03-05T10:10:55.948Z,24.92
2023-03-05T10:13:48.796Z,24.76
2023-03-05T10:16:58.176Z,24.80
2023-03-05T10:19:58.617Z,24.67
2023-03-05T10:23:12.863Z,24.51
2023-03-05T10:26:24.543Z,24.62
2023-03-05T10:29:40.403Z,25.11
2023-03-05T10:32:55.215Z,25.18
2023-03-05T10:36:00.837Z,25.32
2023-03-05T10:39:00.872Z,25.45
2023-03-05T10:42:02.561Z,25.40
2023-03-05T10:44:54.824Z,25.42
2023-03-05T10:47:47.287Z,25.53
2023-03-05T10:50:39.443Z,25.68
2023-03-05T10:53:34.648Z,25.71
2023-03-05T10:56:27.062Z,25.77
2023-03-05T10:59:20.146Z,25.78
2023-03-05T11:02:10.221Z,25.82
2023-03-05T11:04:59.249Z,25.53
2023-03-05T11:07:48.724Z,25.59
2023-03-05T11:10:40.108Z,25.45
2023-03-05T11:13:30.130Z,25.56
2023-03-05T11:16:21.401Z,25.48
2023-03-05T11:19:19.798Z,25.67
2023-03-05T11:22:15.031Z,25.69
2023-03-05T11:25:18.788Z,25.69
2023-03-05T11:28:31.913Z,25.76
2023-03-05T11:31:24.672Z,25.83
2023-03-05T11:34:24.639Z,25.84
2023-03-05T11:37:23.839Z,25.61
2023-03-05T11:40:22.348Z,25.41
2023-03-05T11:43:18.138Z,25.53
2023-03-05T11:46:07.092Z,25.56
2023-03-05T11:48:56.575Z,25.65
2023-03-05T11:51:48.448Z,25.64
2023-03-05T11:54:47.849Z,25.52
2023-03-05T11:58:01.501Z,25.49
2023-03-05T12:01:14.167Z,25.62
2023-03-05T12:21:59.074Z,26.11
2023-03-05T12:24:48.223Z,26.12
2023-03-05T12:43:27.046Z,25.93
2023-03-05T13:05:06.218Z,26.08
2023-03-05T13:08:50.884Z,25.97
2023-03-05T13:15:59.862Z,26.05
2023-03-05T13:22:41.336Z,25.63
2023-03-05T13:25:32.751Z,25.57
2023-03-05T13:35:55.149Z,25.46
2023-03-05T13:38:48.641Z,25.58
2023-03-05T13:41:38.914Z,25.56
2023-03-05T13:44:35.044Z,25.52
2023-03-05T13:47:26.573Z,25.60
2023-03-05T13:50:38.936Z,25.59
2023-03-05T13:53:32.596Z,25.47
2023-03-05T13:56:23.320Z,25.53
2023-03-05T13:59:19.853Z,25.38
2023-03-05T14:02:19.546Z,25.16
2023-03-05T14:05:15.721Z,25.46
2023-03-05T14:08:08.100Z,25.66
2023-03-05T14:11:00.210Z,25.83
2023-03-05T14:13:55.123Z,25.89
2023-03-05T14:16:49.907Z,25.93
2023-03-05T14:19:41.248Z,25.81
2023-03-05T14:22:32.855Z,25.81
2023-03-05T14:25:37.759Z,25.88
2023-03-05T14:29:14.875Z,25.86
2023-03-05T14:32:08.176Z,25.84
2023-03-05T14:38:55.231Z,25.63
2023-03-05T14:41:44.861Z,25.76
2023-03-05T14:44:35.920Z,25.88
2023-03-05T14:47:32.300Z,25.90
2023-03-05T14:53:47.615Z,25.84
2023-03-05T14:56:39.226Z,25.91
2023-03-05T14:59:28.523Z,25.91
2023-03-05T15:02:56.106Z,25.59
2023-03-05T15:05:49.017Z,25.75
2023-03-05T15:09:03.040Z,25.79
2023-03-05T15:15:10.016Z,25.92
2023-03-05T15:17:58.739Z,25.96
2023-03-05T15:20:52.230Z,26.01
2023-03-05T15:23:41.063Z,25.98
2023-03-05T15:26:29.724Z,25.93
2023-03-05T15:29:18.507Z,25.80
2023-03-05T15:32:07.699Z,25.83
2023-03-05T15:34:58.182Z,25.87
2023-03-05T15:37:48.196Z,25.67
2023-03-05T15:40:37.103Z,25.85
2023-03-05T15:43:26.860Z,25.91
2023-03-05T15:46:15.992Z,25.92
2023-03-05T15:49:04.674Z,25.97
2023-03-05T15:51:55.002Z,25.83
2023-03-05T15:54:45.093Z,25.94
2023-03-05T15:57:35.979Z,26.00
2023-03-05T16:00:26.791Z,25.91
2023-03-05T16:03:15.520Z,25.58
2023-03-05T16:06:05.832Z,25.70
2023-03-05T16:08:57.355Z,25.87
2023-03-05T16:11:49.246Z,25.98
2023-03-05T16:14:39.996Z,25.92
2023-03-05T16:17:28.849Z,25.99
2023-03-05T16:20:17.804Z,25.96
2023-03-05T16:23:09.309Z,26.02
2023-03-05T16:25:59.574Z,25.99
2023-03-05T16:28:49.855Z,25.90
2023-03-05T16:31:40.576Z,25.91
2023-03-05T16:34:29.822Z,25.83
2023-03-05T16:37:20.639Z,25.82
2023-03-05T16:40:13.391Z,25.81
2023-03-05T16:43:02.039Z,25.94
2023-03-05T16:45:52.072Z,25.76
2023-03-05T16:48:40.914Z,25.67
2023-03-05T16:51:29.554Z,25.87
2023-03-05T16:54:18.198Z,25.54
2023-03-05T16:57:07.603Z,25.41
2023-03-05T16:59:57.360Z,25.66
2023-03-05T17:02:47.410Z,25.92
2023-03-05T17:05:37.627Z,26.00
2023-03-05T17:08:26.288Z,26.04
2023-03-05T17:11:15.240Z,26.12
2023-03-05T17:14:04.200Z,26.07
2023-03-05T17:16:54.646Z,25.81
2023-03-05T17:19:45.830Z,25.86
2023-03-05T17:22:35.267Z,25.47
2023-03-05T17:25:24.021Z,25.04
2023-03-05T17:28:12.734Z,24.85
2023-03-05T17:31:01.509Z,25.05
2023-03-05T17:33:50.859Z,24.86
2023-03-05T17:36:40.994Z,24.66
2023-03-05T17:39:29.565Z,24.61
2023-03-05T17:42:20.521Z,24.53
2023-03-05T17:45:09.994Z,24.60
2023-03-05T17:48:10.348Z,24.79
2023-03-05T17:50:59.679Z,24.77
2023-03-05T17:53:49.803Z,24.78
2023-03-05T17:56:38.448Z,24.82
2023-03-05T17:59:27.380Z,24.80
2023-03-05T18:02:16.565Z,24.73
2023-03-05T18:05:05.209Z,24.87
2023-03-05T18:07:54.861Z,24.86
2023-03-05T18:10:44.856Z,24.86
2023-03-05T18:13:33.489Z,24.87
2023-03-05T18:16:23.407Z,24.77
2023-03-05T18:19:14.949Z,24.74
2023-03-05T18:22:03.582Z,24.90
2023-03-05T18:24:52.196Z,24.75
2023-03-05T18:27:42.409Z,24.93
2023-03-05T18:30:31.719Z,24.97
2023-03-05T18:33:22.250Z,24.89
2023-03-05T18:36:12.292Z,25.00
2023-03-05T18:39:01.087Z,24.96
2023-03-05T18:41:50.091Z,24.98
2023-03-05T18:44:40.228Z,25.04
2023-03-05T18:47:29.492Z,25.02
2023-03-05T18:50:19.522Z,25.02
2023-03-05T18:53:08.952Z,25.17
2023-03-05T18:55:57.690Z,25.50
2023-03-05T18:58:47.648Z,25.66
2023-03-05T19:01:38.091Z,25.63
2023-03-05T19:04:32.776Z,25.71
2023-03-05T19:07:22.200Z,25.80
2023-03-05T19:10:12.509Z,25.77
2023-03-05T19:13:15.890Z,25.82
2023-03-05T19:16:09.392Z,25.89
2023-03-05T19:19:05.229Z,25.57
2023-03-05T19:21:56.706Z,25.80
2023-03-05T19:24:46.098Z,25.82
2023-03-05T19:27:35.858Z,25.88
2023-03-05T19:30:24.859Z,25.86
2023-03-05T19:33:13.532Z,25.89
2023-03-05T19:36:03.786Z,25.88
2023-03-05T19:38:52.835Z,25.95
2023-03-05T19:41:41.965Z,25.95
2023-03-05T19:44:31.655Z,25.98
2023-03-05T19:47:20.868Z,25.96
2023-03-05T19:50:11.635Z,25.99
2023-03-05T19:53:02.012Z,25.77
2023-03-05T19:55:50.942Z,25.99
2023-03-05T19:58:45.389Z,26.02
2023-03-05T20:01:35.151Z,25.94
2023-03-05T20:04:25.894Z,26.00
2023-03-05T20:07:14.846Z,26.01
2023-03-05T20:10:06.229Z,26.03
2023-03-05T20:12:57.899Z,25.97
2023-03-05T20:15:46.723Z,25.93
2023-03-05T20:18:35.481Z,25.98
2023-03-05T20:21:26.268Z,26.02
2023-03-05T20:24:19.688Z,26.02
2023-03-05T20:27:09.875Z,26.02
2023-03-05T20:29:58.706Z,25.99
2023-03-05T20:32:47.846Z,26.02
2023-03-05T20:35:36.808Z,26.01
2023-03-05T20:38:26.227Z,26.01
2023-03-05T20:41:16.900Z,25.99
2023-03-05T20:44:07.408Z,25.99
2023-03-05T20:47:09.923Z,26.02
2023-03-05T20:50:00.245Z,25.99
2023-03-05T20:52:48.893Z,25.92
2023-03-05T20:55:37.573Z,26.02
2023-03-05T20:58:26.297Z,26.07
2023-03-05T21:01:16.234Z,26.08
2023-03-05T21:04:05.350Z,26.04
2023-03-05T21:06:54.271Z,26.01
2023-03-05T21:09:42.833Z,26.04
2023-03-05T21:12:33.044Z,25.71
2023-03-05T21:15:23.453Z,25.68
2023-03-05T21:18:14.871Z,25.48
2023-03-05T21:21:03.916Z,25.19
2023-03-05T21:24:01.586Z,25.14
2023-03-05T21:26:50.279Z,24.95
2023-03-05T21:29:49.660Z,24.86
2023-03-05T21:32:38.685Z,24.73
2023-03-05T21:38:37.669Z,24.75
2023-03-05T21:41:27.647Z,24.74
2023-03-05T21:44:17.779Z,24.72
2023-03-05T21:47:06.583Z,24.75
2023-03-05T21:49:55.456Z,24.69
2023-03-05T21:52:45.465Z,24.72
2023-03-05T21:55:43.145Z,24.75
2023-03-05T21:58:32.834Z,24.62
2023-03-05T22:01:22.613Z,24.59
2023-03-05T22:04:11.438Z,24.64
2023-03-05T22:07:00.160Z,24.56
2023-03-05T22:09:55.688Z,24.63
2023-03-05T22:12:54.407Z,24.57
2023-03-05T22:15:44.826Z,24.71
2023-03-05T22:18:34.196Z,24.65
2023-03-05T22:21:25.768Z,24.59
2023-03-05T22:24:14.658Z,24.63
2023-03-05T22:27:05.114Z,24.56
2023-03-05T22:29:54.071Z,24.57
2023-03-05T22:32:42.988Z,24.63
2023-03-05T22:35:32.349Z,24.55
2023-03-05T22:38:21.154Z,24.56
2023-03-05T22:41:10.628Z,24.60
2023-03-05T22:44:00.966Z,24.49
2023-03-05T22:46:50.767Z,24.57
2023-03-05T22:49:39.744Z,24.56
2023-03-05T22:52:28.842Z,24.53
2023-03-05T22:55:20.510Z,24.57
2023-03-05T22:58:09.404Z,24.56
2023-03-05T23:01:00.110Z,24.50
2023-03-05T23:03:56.673Z,24.50
2023-03-05T23:06:45.929Z,24.46
2023-03-05T23:09:34.811Z,24.48
2023-03-05T23:12:24.313Z,24.44
2023-03-05T23:15:14.912Z,24.37
2023-03-05T23:18:07.890Z,24.37
2023-03-05T23:20:56.629Z,24.34
2023-03-05T23:23:45.314Z,24.30
2023-03-05T23:26:34.110Z,24.29
2023-03-05T23:29:34.500Z,24.33
2023-03-05T23:32:23.167Z,24.37
2023-03-05T23:35:14.223Z,24.34
2023-03-05T23:38:13.036Z,24.30
2023-03-05T23:41:03.423Z,24.26
2023-03-05T23:43:56.632Z,24.36
2023-03-05T23:46:45.541Z,24.34
2023-03-05T23:49:37.504Z,24.29
2023-03-05T23:52:30.411Z,24.36
2023-03-05T23:55:21.605Z,24.26
2023-03-05T23:58:10.523Z,24.33
